Station: Portable Rfsnsw51  

  Atmospheric Gas Attenuation - ITU Rec 676-11   ----------------- dB/100km -----------------
Date Time Temp RH % AH g/m3 Dew Point Wind Direction Speed kph Gust kph Barometer mB Rainfall Since 9am 24GHz 47GHz 76GHz 122GHz 134GHz 241GHz
08/05 12:20 14.3 70 8.6 9 30 32 1013.1 0 19.6 25.7 39.5 103.8 97.8 336.3
08/05 12:10 14.2 71 8.67 9.1 28 33 1013.1 0 19.7 25.9 39.9 104.7 98.8 340.0
08/05 12:00 13.8 73 8.7 9 30 35 1013.1 0 19.8 26.1 40.2 105.5 99.7 343.1
08/05 11:40 13.9 75 8.99 9.5 22 26 1013.1 0 20.4 26.5 41.3 108.5 103.4 356.2
08/05 11:30 13.4 77 8.95 9.4 20 24 1013.1 0 20.4 26.6 41.4 108.8 103.6 356.6
08/05 11:20 13.1 75 8.56 8.8 22 24 1013.1 0 19.5 26.0 40.0 104.9 98.7 339.6
08/05 11:10 12.9 76 8.57 8.9 20 24 1013.1 0 19.6 26.1 40.1 105.3 99.1 341.0
08/05 11:00 12.8 78 8.74 9 19 22 1013.1 0 19.9 26.4 40.9 107.3 101.5 349.4
08/05 10:50 12.9 77 8.68 9 22 26 1013.1 0 19.8 26.3 40.6 106.5 100.6 346.1
08/05 10:40 12.5 79 8.69 8.9 24 32 1013.1 0 19.8 26.4 40.8 107.2 101.3 348.4
08/05 10:30 12.3 79 8.58 8.7 24 32 1013.1 0 19.6 26.3 40.5 106.2 100.0 344.0
08/05 10:20 12 80 8.53 8.6 24 30 1013.1 0 19.5 26.3 40.4 106.1 99.8 343.0
08/05 10:10 12 79 8.42 8.5 20 28 1013.1 0 19.3 26.1 40.0 104.9 98.3 337.8
08/05 10:00 11.6 81 8.42 8.4 24 28 1013.1 0 19.3 26.2 40.2 105.4 98.8 339.6
08/05 09:50 11.4 82 8.42 8.4 17 22 1013.1 0 19.3 26.3 40.3 105.7 99.0 340.4
08/05 09:40 11.1 82 8.26 8.2 19 24 1013.1 0 19.0 26.1 39.8 104.3 97.3 334.1
08/05 09:30 10.9 83 8.26 8.1 19 22 1013.1 0 19.0 26.2 39.9 104.6 97.5 335.0
08/05 09:20 10.8 83 8.21 8 20 24 1013.1 0 18.9 26.1 39.7 104.2 97.0 333.0
08/05 09:10 10.5 83 8.05 7.8 19 24 1013.1 0 18.6 26.0 39.2 102.8 95.2 326.7
08/05 09:00 10.2 84 8 7.6 19 24 1013.1 0 18.5 26.0 39.1 102.7 94.9 325.6
08/05 08:50 9.8 85 7.89 7.4 19 22 1013.1 0 18.3 25.9 38.9 102.0 93.8 322.0
08/05 08:40 9.7 85 7.84 7.4 20 24 1013.1 0 18.2 25.8 38.7 101.6 93.3 320.1
08/05 08:20 9.3 87 7.82 7.2 19 20 1013.1 0 18.1 25.9 38.8 101.9 93.5 320.7
08/05 08:10 9.1 87 7.72 7 17 20 1013.1 0 17.9 25.8 38.5 101.0 92.4 316.8
08/05 08:00 9 87 7.67 6.9 13 17 1013.1 0 17.8 25.8 38.4 100.6 91.8 314.8
08/05 07:50 8.9 86 7.54 6.7 13 15 1013.1 0 17.5 25.6 37.9 99.3 90.2 309.0
08/05 07:40 8.7 87 7.53 6.6 11 13 1013.1 0 17.5 25.6 37.9 99.4 90.3 309.3
08/05 07:30 8.4 87 7.38 6.4 9 13 1013.1 0 17.2 25.4 37.5 98.2 88.6 303.4
08/05 07:20 8.3 87 7.34 6.2 11 13 1013.1 0 17.1 25.4 37.3 97.8 88.1 301.8
08/05 07:10 8.2 87 7.29 6.1 11 11 1013.1 0 17.0 25.4 37.2 97.4 87.6 299.9
08/05 07:00 8.3 85 7.17 6 9 13 1013.1 0 16.8 25.1 36.6 96.0 85.8 293.8
08/05 06:50 8.4 84 7.13 5.9 11 13 1013.1 0 16.7 25.0 36.4 95.4 85.2 291.5
08/05 06:40 8.4 85 7.21 6 13 17 1013.1 0 16.9 25.2 36.8 96.3 86.3 295.3
08/05 06:30 8.4 84 7.13 5.9 13 15 1013.1 0 16.7 25.0 36.4 95.4 85.2 291.5
08/05 06:20 8.5 84 7.17 5.9 11 13 1013.1 0 16.8 25.1 36.6 95.7 85.6 293.0
08/05 06:10 8.5 84 7.17 5.9 9 11 1013.1 0 16.8 25.1 36.6 95.7 85.6 293.0
08/05 06:00 8.5 82 7 5.7 11 13 1013.1 0 16.4 24.8 35.9 93.9 83.3 285.0
08/05 05:50 8.5 82 7 5.7 11 13 1013.1 0 16.4 24.8 35.9 93.9 83.3 285.0
08/05 05:40 8.6 82 7.05 5.7 9 11 1013.1 0 16.5 24.8 36.0 94.3 83.9 287.0
08/05 05:30 8.8 81 7.05 5.7 11 11 1013.1 0 16.5 24.8 35.9 94.1 83.7 286.3
08/05 05:20 8.8 80 6.97 5.6 9 11 1013.1 0 16.3 24.7 35.6 93.2 82.6 282.6
08/05 05:10 8.8 80 6.97 5.6 11 13 1013.1 0 16.3 24.7 35.6 93.2 82.6 282.6
08/05 05:00 8.8 80 6.97 5.6 11 13 1013.1 0 16.3 24.7 35.6 93.2 82.6 282.6
08/05 04:50 8.7 80 6.92 5.5 13 15 1013.1 0 16.2 24.6 35.4 92.8 82.1 280.6
08/05 04:40 8.7 80 6.92 5.4 11 15 1013.1 0 16.2 24.6 35.4 92.8 82.1 280.6
08/05 04:30 8.6 80 6.88 5.3 9 11 1013.1 0 16.1 24.6 35.3 92.5 81.6 279.1
08/05 04:20 8.7 79 6.83 5.2 11 15 1013.1 0 16.0 24.5 35.1 91.8 80.9 276.4
08/05 04:10 8.7 79 6.83 5.2 9 13 1013.1 0 16.0 24.5 35.1 91.8 80.9 276.4
08/05 04:00 8.7 79 6.83 5.2 11 13 1013.1 0 16.0 24.5 35.1 91.8 80.9 276.4
08/05 03:50 8.7 77 6.66 5 11 13 1013.1 0 15.7 24.2 34.4 90.0 78.6 268.5
08/05 03:40 8.6 78 6.7 5 11 15 1013.1 0 15.7 24.3 34.6 90.5 79.3 270.7
08/05 03:30 8.6 78 6.7 5 11 11 1013.1 0 15.7 24.3 34.6 90.5 79.3 270.7
08/05 03:20 8.6 79 6.79 5.2 9 11 1013.1 0 15.9 24.4 35.0 91.5 80.4 274.9
08/05 03:10 8.6 78 6.7 5 7 9 1013.1 0 15.7 24.3 34.6 90.5 79.3 270.7
08/05 03:00 8.6 78 6.7 5 9 11 1013.1 0 15.7 24.3 34.6 90.5 79.3 270.7
08/05 02:50 8.6 77 6.62 4.9 9 13 1013.1 0 15.6 24.2 34.3 89.7 78.2 267.0
08/05 02:40 8.6 78 6.7 5 11 11 1013.1 0 15.7 24.3 34.6 90.5 79.3 270.7
08/05 02:30 8.5 77 6.58 4.7 9 11 1013.1 0 15.5 24.1 34.2 89.4 77.8 265.5
08/05 02:20 8.5 76 6.49 4.6 9 11 1013.1 0 15.3 24.0 33.8 88.4 76.6 261.4
08/05 02:10 8.4 76 6.45 4.5 9 13 1013.1 0 15.2 23.9 33.7 88.1 76.2 259.9
08/05 02:00 8.4 76 6.45 4.4 11 13 1013.1 0 15.2 23.9 33.7 88.1 76.2 259.9
08/05 01:50 8.3 76 6.41 4.4 11 13 1013.1 0 15.1 23.9 33.6 87.8 75.7 258.4
08/05 01:40 8.3 76 6.41 4.4 9 11 1013.1 0 15.1 23.9 33.6 87.8 75.7 258.4
08/05 01:30 8.2 77 6.45 4.4 13 13 1013.1 0 15.2 24.0 33.8 88.3 76.4 260.6
08/05 01:20 8.2 77 6.45 4.5 13 15 1013.1 0 15.2 24.0 33.8 88.3 76.4 260.6
08/05 01:10 8.1 77 6.41 4.3 11 13 1013.1 0 15.1 23.9 33.7 88.0 75.9 259.0
08/05 01:00 7.8 79 6.45 4.4 11 13 1013.1 0 15.2 24.1 34.0 88.8 76.8 261.9
08/05 00:50 7.9 78 6.41 4.3 11 13 1013.1 0 15.2 24.0 33.7 88.2 76.1 259.7
08/05 00:40 8.2 78 6.53 4.6 11 15 1013.1 0 15.4 24.1 34.1 89.2 77.4 264.2
08/05 00:30 8.2 77 6.45 4.5 9 11 1013.1 0 15.2 24.0 33.8 88.3 76.4 260.6
08/05 00:10 8.2 77 6.45 4.4 9 11 1013.1 0 15.2 24.0 33.8 88.3 76.4 260.6
08/05 00:00 8.3 77 6.49 4.5 11 11 1013.1 0 15.3 24.0 33.9 88.6 76.8 262.1
07/05 23:50 8.3 77 6.49 4.5 9 11 1013.1 0 15.3 24.0 33.9 88.6 76.8 262.1
07/05 23:30 8 78 6.45 4.4 7 9 1013.1 0 15.2 24.0 33.9 88.6 76.6 261.2
07/05 23:20 7.9 78 6.41 4.4 6 7 1013.1 0 15.2 24.0 33.7 88.2 76.1 259.7
07/05 23:10 7.8 78 6.37 4.2 6 7 1013.1 0 15.1 24.0 33.6 87.9 75.7 258.2
07/05 23:00 7.7 78 6.33 4.1 6 9 1013.1 0 15.0 23.9 33.5 87.6 75.3 256.7
07/05 22:50 7.7 77 6.25 3.9 7 7 1013.1 0 14.8 23.8 33.2 86.8 74.2 253.0
07/05 22:40 7.6 77 6.21 3.8 7 9 1013.1 0 14.7 23.8 33.1 86.4 73.8 251.5
07/05 22:30 7.5 77 6.17 3.8 7 9 1013.1 0 14.7 23.7 33.0 86.1 73.4 250.0
07/05 22:20 7.4 77 6.13 3.6 7 7 1013.1 0 14.6 23.7 32.8 85.8 72.9 248.4
07/05 22:10 7.4 76 6.05 3.5 9 9 1013.1 0 14.4 23.6 32.5 85.0 71.9 244.8
07/05 22:00 7.4 76 6.05 3.5 9 9 1013.1 0 14.4 23.6 32.5 85.0 71.9 244.8
07/05 21:40 7.5 76 6.09 3.5 7 9 1013.1 0 14.5 23.6 32.6 85.3 72.3 246.3
07/05 21:30 7.6 75 6.04 3.4 7 9 1013.1 0 14.4 23.5 32.4 84.6 71.6 243.7
07/05 21:20 7.8 75 6.12 3.6 13 13 1013.1 0 14.5 23.6 32.6 85.3 72.4 246.7
07/05 21:10 8.1 73 6.08 3.6 11 13 1013.1 0 14.4 23.4 32.4 84.5 71.6 244.0
07/05 21:00 8.4 72 6.11 3.7 11 15 1013.1 0 14.5 23.4 32.4 84.5 71.8 244.4
07/05 20:50 8.6 72 6.19 3.8 13 13 1013.1 0 14.7 23.5 32.6 85.1 72.6 247.4
07/05 20:40 8.6 71 6.1 3.7 13 15 1013.1 0 14.5 23.3 32.2 84.2 71.4 243.3
07/05 20:30 8.7 70 6.06 3.6 13 19 1013.1 0 14.4 23.2 32.0 83.7 70.8 241.2
07/05 20:20 8.6 71 6.1 3.6 11 11 1013.1 0 14.5 23.3 32.2 84.2 71.4 243.3
07/05 20:10 8.6 71 6.1 3.7 9 11 1013.1 0 14.5 23.3 32.2 84.2 71.4 243.3
07/05 20:00 8.7 69 5.97 3.4 7 9 1013.1 0 14.2 23.1 31.7 82.8 69.7 237.2
07/05 19:50 8.6 69 5.93 3.2 7 9 1013.1 0 14.1 23.1 31.6 82.4 69.3 235.7
07/05 19:40 8.6 70 6.02 3.5 9 9 1013.1 0 14.3 23.2 31.9 83.4 70.4 239.7
07/05 19:30 8.8 70 6.09 3.6 7 11 1013.1 0 14.4 23.3 32.1 83.9 71.1 242.3
07/05 19:20 8.9 68 5.96 3.4 7 7 1013.1 0 14.1 23.0 31.6 82.4 69.4 236.1
07/05 19:10 9.1 68 6.04 3.6 7 9 1013.1 0 14.3 23.1 31.8 83.1 70.2 239.1
07/05 19:00 9.1 67 5.95 3.3 7 7 1013.1 0 14.1 23.0 31.5 82.1 69.1 235.1

Last Refresh: 08-May-2026 12:07:17

Bureau of Meteorology